createdAt,value
2022-10-16T00:01:20.768Z,13.51
2022-10-16T00:03:50.515Z,13.43
2022-10-16T00:06:20.761Z,13.69
2022-10-16T00:08:49.688Z,13.42
2022-10-16T00:11:19.012Z,13.47
2022-10-16T00:13:48.594Z,13.57
2022-10-16T00:16:17.545Z,13.47
2022-10-16T00:18:45.629Z,13.50
2022-10-16T00:21:17.372Z,13.43
2022-10-16T00:23:45.413Z,13.32
2022-10-16T00:26:16.252Z,13.38
2022-10-16T00:28:44.543Z,13.60
2022-10-16T00:31:14.013Z,13.57
2022-10-16T00:33:42.245Z,13.61
2022-10-16T00:36:13.391Z,13.46
2022-10-16T00:38:42.930Z,13.50
2022-10-16T00:41:16.732Z,13.42
2022-10-16T00:43:46.704Z,13.47
2022-10-16T00:46:17.868Z,13.50
2022-10-16T00:48:51.436Z,13.54
2022-10-16T00:51:22.339Z,13.45
2022-10-16T00:53:52.456Z,13.57
2022-10-16T00:56:20.683Z,13.50
2022-10-16T00:58:48.901Z,13.44
2022-10-16T01:01:17.094Z,13.37
2022-10-16T01:03:45.210Z,13.44
2022-10-16T01:09:09.283Z,13.44
2022-10-16T01:11:43.887Z,13.55
2022-10-16T01:14:17.258Z,13.64
2022-10-16T01:16:50.475Z,13.64
2022-10-16T01:19:22.695Z,13.70
2022-10-16T01:21:53.711Z,13.62
2022-10-16T01:24:29.805Z,13.71
2022-10-16T01:27:20.541Z,13.65
2022-10-16T01:29:54.008Z,13.63
2022-10-16T01:32:25.586Z,13.71
2022-10-16T01:34:56.395Z,13.64
2022-10-16T01:37:32.425Z,13.69
2022-10-16T01:40:02.087Z,13.67
2022-10-16T01:42:35.868Z,13.66
2022-10-16T01:45:05.108Z,13.70
2022-10-16T01:47:33.978Z,13.70
2022-10-16T01:50:03.495Z,13.71
2022-10-16T01:52:32.038Z,13.65
2022-10-16T01:55:01.849Z,13.69
2022-10-16T01:57:32.384Z,13.69
2022-10-16T02:00:04.130Z,13.67
2022-10-16T02:02:41.223Z,13.59
2022-10-16T02:05:13.797Z,13.48
2022-10-16T02:07:43.142Z,13.49
2022-10-16T02:10:12.746Z,13.43
2022-10-16T02:12:43.940Z,13.54
2022-10-16T02:15:12.083Z,13.47
2022-10-16T02:17:40.074Z,13.58
2022-10-16T02:20:08.649Z,13.48
2022-10-16T02:22:38.837Z,13.52
2022-10-16T02:25:10.318Z,13.40
2022-10-16T02:27:45.383Z,13.40
2022-10-16T02:30:16.952Z,13.42
2022-10-16T02:32:46.939Z,13.56
2022-10-16T02:35:15.751Z,13.64
2022-10-16T02:37:44.266Z,13.51
2022-10-16T02:40:12.962Z,13.53
2022-10-16T02:42:43.634Z,13.57
2022-10-16T02:45:13.399Z,13.47
2022-10-16T02:47:41.647Z,13.36
2022-10-16T02:50:10.172Z,13.51
2022-10-16T02:52:38.244Z,13.64
2022-10-16T02:55:07.136Z,13.55
2022-10-16T02:57:35.204Z,13.50
2022-10-16T03:00:05.451Z,13.53
2022-10-16T03:02:33.521Z,13.51
2022-10-16T03:05:01.518Z,13.48
2022-10-16T03:07:29.577Z,13.46
2022-10-16T03:09:57.797Z,13.55
2022-10-16T03:12:25.828Z,13.37
2022-10-16T03:14:53.895Z,13.29
2022-10-16T03:17:23.387Z,13.39
2022-10-16T03:19:51.983Z,13.33
2022-10-16T03:22:20.043Z,13.34
2022-10-16T03:24:48.097Z,13.41
2022-10-16T03:27:16.189Z,13.22
2022-10-16T03:29:44.230Z,13.35
2022-10-16T03:32:12.332Z,13.33
2022-10-16T03:34:41.697Z,13.24
2022-10-16T03:37:09.949Z,13.16
2022-10-16T03:39:37.958Z,13.18
2022-10-16T03:42:06.595Z,13.22
2022-10-16T03:44:34.692Z,13.17
2022-10-16T03:47:02.757Z,13.30
2022-10-16T03:49:30.758Z,13.16
2022-10-16T03:52:00.197Z,13.00
2022-10-16T03:54:28.265Z,13.22
2022-10-16T03:56:56.362Z,13.22
2022-10-16T03:59:24.409Z,13.29
2022-10-16T04:01:52.435Z,13.23
2022-10-16T04:04:20.640Z,13.19
2022-10-16T04:06:48.682Z,13.14
2022-10-16T04:09:18.085Z,12.98
2022-10-16T04:11:46.523Z,13.00
2022-10-16T04:14:14.697Z,13.09
2022-10-16T04:16:42.803Z,13.00
2022-10-16T04:19:11.619Z,13.02
2022-10-16T04:21:39.872Z,13.01
2022-10-16T04:24:07.908Z,12.83
2022-10-16T04:26:37.299Z,12.87
2022-10-16T04:29:05.634Z,12.89
2022-10-16T04:31:33.964Z,12.82
2022-10-16T04:34:01.996Z,12.86
2022-10-16T04:36:30.054Z,12.86
2022-10-16T04:38:58.110Z,12.84
2022-10-16T04:41:26.254Z,12.97
2022-10-16T04:43:55.688Z,12.78
2022-10-16T04:46:23.743Z,12.82
2022-10-16T04:48:51.891Z,12.85
2022-10-16T04:51:20.330Z,12.75
2022-10-16T04:53:48.353Z,12.76
2022-10-16T04:56:16.921Z,12.89
2022-10-16T04:58:44.948Z,12.81
2022-10-16T05:01:14.482Z,12.59
2022-10-16T05:03:42.636Z,12.70
2022-10-16T05:06:10.648Z,12.63
2022-10-16T05:08:38.762Z,12.72
2022-10-16T05:11:06.801Z,12.72
2022-10-16T05:13:34.860Z,12.52
2022-10-16T05:16:02.908Z,12.59
2022-10-16T05:18:32.448Z,12.72
2022-10-16T05:21:00.440Z,12.60
2022-10-16T05:23:28.521Z,12.60
2022-10-16T05:25:59.171Z,12.63
2022-10-16T05:28:27.626Z,12.81
2022-10-16T05:30:55.643Z,12.73
2022-10-16T05:33:24.948Z,12.65
2022-10-16T05:35:54.326Z,12.72
2022-10-16T05:38:22.327Z,12.74
2022-10-16T05:40:53.431Z,12.65
2022-10-16T05:43:21.595Z,12.81
2022-10-16T05:45:59.301Z,12.68
2022-10-16T05:48:27.748Z,12.77
2022-10-16T05:51:00.906Z,12.72
2022-10-16T05:53:29.743Z,12.85
2022-10-16T05:55:58.409Z,12.70
2022-10-16T05:58:27.123Z,12.69
2022-10-16T06:00:56.211Z,12.75
2022-10-16T06:03:24.520Z,12.92
2022-10-16T06:05:52.665Z,12.69
2022-10-16T06:08:23.337Z,12.80
2022-10-16T06:10:51.784Z,12.73
2022-10-16T06:13:19.777Z,12.65
2022-10-16T06:15:47.817Z,12.41
2022-10-16T06:18:15.927Z,12.66
2022-10-16T06:20:43.949Z,12.67
2022-10-16T06:23:12.010Z,12.73
2022-10-16T06:25:41.487Z,12.71
2022-10-16T06:28:09.530Z,12.63
2022-10-16T06:30:37.590Z,12.65
2022-10-16T06:33:05.632Z,12.71
2022-10-16T06:35:34.020Z,12.77
2022-10-16T06:38:02.051Z,12.71
2022-10-16T06:40:30.120Z,12.50
2022-10-16T06:42:59.760Z,12.63
2022-10-16T06:45:27.904Z,12.73
2022-10-16T06:47:56.014Z,12.85
2022-10-16T06:50:24.662Z,12.71
2022-10-16T06:52:52.736Z,12.83
2022-10-16T06:55:20.813Z,12.79
2022-10-16T06:57:49.482Z,12.86
2022-10-16T07:00:19.156Z,12.95
2022-10-16T07:02:47.199Z,12.78
2022-10-16T07:05:15.287Z,12.75
2022-10-16T07:07:44.476Z,12.70
2022-10-16T07:10:12.572Z,12.58
2022-10-16T07:12:40.601Z,12.71
2022-10-16T07:15:09.689Z,12.60
2022-10-16T07:17:39.044Z,12.82
2022-10-16T07:20:08.256Z,12.75
2022-10-16T07:22:36.232Z,12.93
2022-10-16T07:25:04.435Z,12.86
2022-10-16T07:27:32.586Z,13.04
2022-10-16T07:30:03.771Z,13.03
2022-10-16T07:32:34.657Z,13.14
2022-10-16T07:35:04.054Z,13.23
2022-10-16T07:37:32.095Z,13.30
2022-10-16T07:40:00.150Z,13.51
2022-10-16T07:42:29.430Z,13.37
2022-10-16T07:44:57.499Z,13.33
2022-10-16T07:47:25.955Z,13.39
2022-10-16T07:49:54.173Z,13.35
2022-10-16T07:52:23.581Z,13.43
2022-10-16T07:54:51.636Z,13.29
2022-10-16T07:57:20.641Z,13.30
2022-10-16T07:59:48.782Z,13.31
2022-10-16T08:02:17.006Z,13.35
2022-10-16T08:04:45.052Z,13.36
2022-10-16T08:07:13.199Z,13.39
2022-10-16T08:09:42.589Z,13.54
2022-10-16T08:12:11.966Z,13.44
2022-10-16T08:14:41.360Z,13.60
2022-10-16T08:17:11.279Z,13.67
2022-10-16T08:19:39.948Z,13.73
2022-10-16T08:22:08.023Z,13.85
2022-10-16T08:24:37.169Z,13.62
2022-10-16T08:27:06.629Z,13.79
2022-10-16T08:29:34.865Z,13.68
2022-10-16T08:32:03.001Z,13.84
2022-10-16T08:34:31.228Z,13.58
2022-10-16T08:36:59.270Z,13.79
2022-10-16T08:39:27.367Z,13.80
2022-10-16T08:42:15.996Z,13.90
2022-10-16T08:44:58.961Z,13.93
2022-10-16T08:47:28.985Z,14.03
2022-10-16T08:50:00.113Z,14.11
2022-10-16T08:52:31.203Z,14.07
2022-10-16T08:54:59.664Z,14.20
2022-10-16T08:57:29.094Z,14.11
2022-10-16T09:00:01.398Z,14.33
2022-10-16T09:02:33.870Z,14.23
2022-10-16T09:05:11.587Z,14.21
2022-10-16T09:07:45.349Z,14.26
2022-10-16T09:10:22.120Z,14.28
2022-10-16T09:12:56.123Z,14.54
2022-10-16T09:15:31.643Z,14.36
2022-10-16T09:18:03.407Z,14.22
2022-10-16T09:20:36.971Z,14.35
2022-10-16T09:23:16.892Z,14.19
2022-10-16T09:25:48.677Z,14.51
2022-10-16T09:28:19.059Z,14.52
2022-10-16T09:30:49.447Z,14.50
2022-10-16T09:33:18.503Z,14.44
2022-10-16T09:35:47.810Z,14.66
2022-10-16T09:38:29.415Z,14.71
2022-10-16T09:40:59.145Z,14.70
2022-10-16T09:43:40.329Z,14.33
2022-10-16T09:46:11.462Z,14.44
2022-10-16T09:48:41.008Z,14.51
2022-10-16T09:51:20.251Z,14.41
2022-10-16T09:53:49.108Z,14.46
2022-10-16T09:56:25.551Z,14.52
2022-10-16T09:58:56.155Z,14.64
2022-10-16T10:01:27.476Z,14.61
2022-10-16T10:04:02.056Z,14.93
2022-10-16T10:06:32.120Z,15.22
2022-10-16T10:09:06.782Z,15.20
2022-10-16T10:11:57.480Z,15.13
2022-10-16T10:14:30.733Z,14.98
2022-10-16T10:17:20.745Z,14.91
2022-10-16T10:19:52.360Z,14.96
2022-10-16T10:22:25.628Z,15.03
2022-10-16T10:24:59.038Z,15.08
2022-10-16T10:27:34.971Z,15.06
2022-10-16T10:30:09.301Z,15.25
2022-10-16T10:32:43.114Z,15.35
2022-10-16T10:35:18.344Z,15.22
2022-10-16T10:37:57.621Z,15.17
2022-10-16T10:40:34.286Z,15.25
2022-10-16T10:43:06.893Z,15.37
2022-10-16T10:45:42.071Z,15.42
2022-10-16T10:48:21.236Z,15.51
2022-10-16T10:50:52.040Z,15.78
2022-10-16T10:53:27.062Z,15.72
2022-10-16T10:56:01.629Z,16.05
2022-10-16T10:59:05.743Z,16.27
2022-10-16T11:01:43.184Z,16.37
2022-10-16T11:04:30.358Z,16.46
2022-10-16T11:07:00.993Z,16.45
2022-10-16T11:09:33.033Z,16.69
2022-10-16T11:12:03.721Z,16.84
2022-10-16T11:14:35.671Z,16.72
2022-10-16T11:17:10.072Z,16.89
2022-10-16T11:19:42.449Z,17.17
2022-10-16T11:22:15.945Z,17.21
2022-10-16T11:24:49.303Z,17.53
2022-10-16T11:27:19.695Z,17.14
2022-10-16T11:29:51.616Z,17.08
2022-10-16T11:32:32.087Z,17.07
2022-10-16T11:35:05.056Z,16.99
2022-10-16T11:37:35.118Z,17.11
2022-10-16T11:40:13.410Z,17.33
2022-10-16T11:42:46.438Z,17.41
2022-10-16T11:45:26.507Z,17.71
2022-10-16T11:48:03.870Z,17.35
2022-10-16T11:50:37.152Z,17.46
2022-10-16T11:53:11.501Z,17.45
2022-10-16T11:55:44.676Z,17.55
2022-10-16T11:58:21.797Z,17.53
2022-10-16T12:00:57.279Z,17.48
2022-10-16T12:03:31.049Z,17.45
2022-10-16T12:06:13.937Z,16.93
2022-10-16T12:08:42.389Z,17.15
2022-10-16T12:11:12.102Z,17.33
2022-10-16T12:13:43.395Z,17.43
2022-10-16T12:16:24.484Z,17.61
2022-10-16T12:19:10.182Z,17.81
2022-10-16T12:21:38.222Z,17.92
2022-10-16T12:24:07.091Z,17.85
2022-10-16T12:26:37.108Z,17.66
2022-10-16T12:29:16.633Z,17.82
2022-10-16T12:31:57.528Z,17.90
2022-10-16T12:34:30.835Z,18.05
2022-10-16T12:37:10.842Z,18.07
2022-10-16T12:39:39.229Z,18.29
2022-10-16T12:42:19.750Z,18.47
2022-10-16T12:44:47.851Z,18.34
2022-10-16T12:47:23.181Z,18.53
2022-10-16T12:49:54.623Z,18.71
2022-10-16T12:52:31.451Z,18.54
2022-10-16T12:55:01.863Z,18.59
2022-10-16T12:57:40.920Z,18.52
2022-10-16T13:00:16.910Z,18.50
2022-10-16T13:03:03.588Z,18.60
2022-10-16T13:05:45.866Z,18.69
2022-10-16T13:08:29.646Z,18.85
2022-10-16T13:11:05.598Z,18.93
2022-10-16T13:13:50.033Z,18.91
2022-10-16T13:16:25.550Z,19.00
2022-10-16T13:19:02.464Z,19.10
2022-10-16T13:21:39.054Z,19.13
2022-10-16T13:24:16.339Z,19.18
2022-10-16T13:26:48.548Z,19.21
2022-10-16T13:29:16.953Z,19.21
2022-10-16T13:31:45.447Z,19.31
2022-10-16T13:34:16.103Z,19.40
2022-10-16T13:36:51.273Z,19.49
2022-10-16T13:39:24.373Z,19.59
2022-10-16T13:42:09.010Z,19.48
2022-10-16T13:44:45.801Z,19.37
2022-10-16T13:47:18.756Z,19.32
2022-10-16T13:49:47.554Z,19.20
2022-10-16T13:52:21.554Z,19.14
2022-10-16T13:54:50.006Z,19.09
2022-10-16T13:57:33.866Z,19.13
2022-10-16T14:00:01.931Z,19.17
2022-10-16T14:02:35.987Z,19.16
2022-10-16T14:05:05.208Z,19.38
2022-10-16T14:07:36.292Z,19.41
2022-10-16T14:10:06.898Z,19.48
2022-10-16T14:12:35.559Z,19.55
2022-10-16T14:15:04.314Z,19.57
2022-10-16T14:17:34.596Z,19.61
2022-10-16T14:20:06.646Z,19.66
2022-10-16T14:22:41.049Z,19.65
2022-10-16T14:25:24.002Z,19.61
2022-10-16T14:27:59.888Z,19.60
2022-10-16T14:30:28.961Z,19.60
2022-10-16T14:32:58.385Z,19.63
2022-10-16T14:35:31.620Z,19.59
2022-10-16T14:38:02.513Z,19.59
2022-10-16T14:40:32.029Z,19.57
2022-10-16T14:43:00.506Z,19.55
2022-10-16T14:45:30.874Z,19.53
2022-10-16T14:48:00.496Z,19.52
2022-10-16T14:50:28.688Z,19.52
2022-10-16T14:52:57.068Z,19.45
2022-10-16T14:55:27.099Z,19.51
2022-10-16T14:57:58.351Z,19.49
2022-10-16T15:00:28.891Z,19.52
2022-10-16T15:02:57.068Z,19.48
2022-10-16T15:05:27.776Z,19.45
2022-10-16T15:07:57.139Z,19.40
2022-10-16T15:10:28.690Z,19.42
2022-10-16T15:12:56.903Z,19.40
2022-10-16T15:15:33.359Z,19.39
2022-10-16T15:18:02.098Z,19.25
2022-10-16T15:20:32.346Z,19.24
2022-10-16T15:23:00.384Z,19.17
2022-10-16T15:25:34.261Z,19.12
2022-10-16T15:28:03.569Z,19.08
2022-10-16T15:30:31.949Z,19.02
2022-10-16T15:33:00.018Z,18.94
2022-10-16T15:35:28.403Z,18.84
2022-10-16T15:37:56.633Z,18.83
2022-10-16T15:40:25.269Z,18.83
2022-10-16T15:42:54.842Z,18.79
2022-10-16T15:45:23.209Z,18.73
2022-10-16T15:47:51.662Z,18.72
2022-10-16T15:50:20.082Z,18.65
2022-10-16T15:52:48.234Z,18.60
2022-10-16T15:55:16.839Z,18.55
2022-10-16T15:57:45.292Z,18.49
2022-10-16T16:00:17.126Z,18.47
2022-10-16T16:02:48.005Z,18.43
2022-10-16T16:05:16.282Z,18.35
2022-10-16T16:07:44.375Z,18.31
2022-10-16T16:10:13.817Z,18.30
2022-10-16T16:12:41.960Z,18.24
2022-10-16T16:15:11.268Z,18.17
2022-10-16T16:17:40.729Z,18.15
2022-10-16T16:20:10.237Z,18.16
2022-10-16T16:22:38.624Z,18.09
2022-10-16T16:25:07.536Z,18.05
2022-10-16T16:27:35.615Z,18.03
2022-10-16T16:30:04.597Z,18.01
2022-10-16T16:32:32.870Z,18.00
2022-10-16T16:35:03.355Z,17.97
2022-10-16T16:37:31.928Z,17.90
2022-10-16T16:40:00.660Z,17.84
2022-10-16T16:42:29.124Z,17.84
2022-10-16T16:44:57.856Z,17.81
2022-10-16T16:47:26.551Z,17.83
2022-10-16T16:49:55.283Z,17.83
2022-10-16T16:52:25.785Z,17.85
2022-10-16T16:54:54.228Z,17.83
2022-10-16T16:57:23.585Z,17.80
2022-10-16T16:59:53.625Z,17.75
2022-10-16T17:02:22.115Z,17.72
2022-10-16T17:04:54.758Z,17.71
2022-10-16T17:07:26.767Z,17.71
2022-10-16T17:10:01.385Z,17.66
2022-10-16T17:12:32.581Z,17.64
2022-10-16T17:15:03.803Z,17.63
2022-10-16T17:17:36.947Z,17.63
2022-10-16T17:20:15.546Z,17.66
2022-10-16T17:22:50.585Z,17.63
2022-10-16T17:25:26.838Z,17.65
2022-10-16T17:28:01.050Z,17.58
2022-10-16T17:30:34.380Z,17.58
2022-10-16T17:33:11.294Z,17.55
2022-10-16T17:35:48.948Z,17.53
2022-10-16T17:38:33.024Z,17.48
2022-10-16T17:41:13.845Z,17.50
2022-10-16T17:43:45.689Z,17.50
2022-10-16T17:46:17.436Z,17.51
2022-10-16T17:48:52.794Z,17.48
2022-10-16T17:51:26.112Z,17.47
2022-10-16T17:54:02.714Z,17.40
2022-10-16T17:56:44.658Z,17.36
2022-10-16T17:59:25.348Z,17.34
2022-10-16T18:01:56.628Z,17.33
2022-10-16T18:04:33.923Z,17.27
2022-10-16T18:10:10.846Z,17.21
2022-10-16T18:12:46.526Z,17.18
2022-10-16T18:15:19.609Z,17.12
2022-10-16T18:17:56.058Z,17.09
2022-10-16T18:20:26.257Z,17.04
2022-10-16T18:22:56.712Z,17.02
2022-10-16T18:25:35.763Z,17.07
2022-10-16T18:28:10.060Z,17.06
2022-10-16T18:30:47.961Z,17.02
2022-10-16T18:33:18.666Z,17.02
2022-10-16T18:35:52.531Z,17.01
2022-10-16T18:38:24.795Z,16.98
2022-10-16T18:41:11.808Z,16.91
2022-10-16T18:43:43.972Z,17.04
2022-10-16T18:46:18.007Z,16.94
2022-10-16T18:48:51.440Z,16.91
2022-10-16T18:51:24.697Z,16.92
2022-10-16T18:53:57.432Z,16.90
2022-10-16T18:56:40.723Z,16.90
2022-10-16T18:59:22.631Z,16.91
2022-10-16T19:01:53.889Z,16.86
2022-10-16T19:04:25.769Z,16.81
2022-10-16T19:06:57.070Z,16.78
2022-10-16T19:09:30.366Z,16.69
2022-10-16T19:12:03.732Z,16.64
2022-10-16T19:14:37.202Z,16.63
2022-10-16T19:17:08.094Z,16.65
2022-10-16T19:19:38.817Z,16.64
2022-10-16T19:22:34.168Z,16.56
2022-10-16T19:25:04.514Z,16.52
2022-10-16T19:27:35.191Z,16.49
2022-10-16T19:30:04.155Z,16.48
2022-10-16T19:32:33.899Z,16.52
2022-10-16T19:35:03.733Z,16.43
2022-10-16T19:37:33.694Z,16.40
2022-10-16T19:40:02.995Z,16.41
2022-10-16T19:42:31.959Z,16.42
2022-10-16T19:45:01.891Z,16.40
2022-10-16T19:47:41.682Z,16.33
2022-10-16T19:50:16.695Z,16.33
2022-10-16T19:52:46.841Z,16.33
2022-10-16T19:55:15.360Z,16.35
2022-10-16T19:57:45.807Z,16.31
2022-10-16T20:00:17.974Z,16.34
2022-10-16T20:02:46.558Z,16.33
2022-10-16T20:05:15.060Z,16.31
2022-10-16T20:07:43.695Z,16.29
2022-10-16T20:10:12.919Z,16.25
2022-10-16T20:12:41.318Z,16.18
2022-10-16T20:15:10.525Z,16.15
2022-10-16T20:17:41.575Z,16.08
2022-10-16T20:20:10.385Z,16.07
2022-10-16T20:22:39.348Z,16.14
2022-10-16T20:25:10.061Z,16.13
2022-10-16T20:27:38.543Z,16.07
2022-10-16T20:30:13.407Z,16.03
2022-10-16T20:32:46.162Z,15.98
2022-10-16T20:35:14.803Z,15.95
2022-10-16T20:37:49.951Z,15.87
2022-10-16T20:40:18.659Z,15.89
2022-10-16T20:42:50.532Z,15.92
2022-10-16T20:45:19.508Z,15.95
2022-10-16T20:47:49.968Z,15.88
2022-10-16T20:50:18.301Z,15.88
2022-10-16T20:55:24.258Z,15.82
2022-10-16T20:57:59.257Z,15.80
2022-10-16T21:00:28.963Z,15.81
2022-10-16T21:03:00.067Z,15.81
2022-10-16T21:05:30.254Z,15.63
2022-10-16T21:07:58.907Z,15.57
2022-10-16T21:10:27.017Z,15.68
2022-10-16T21:12:55.590Z,15.68
2022-10-16T21:15:24.044Z,15.63
2022-10-16T21:17:54.956Z,15.68
2022-10-16T21:20:26.375Z,15.60
2022-10-16T21:23:01.279Z,15.59
2022-10-16T21:25:37.697Z,15.54
2022-10-16T21:28:09.075Z,15.48
2022-10-16T21:30:38.254Z,15.49
2022-10-16T21:33:15.221Z,15.50
2022-10-16T21:35:47.130Z,15.47
2022-10-16T21:38:18.021Z,15.53
2022-10-16T21:40:46.258Z,15.45
2022-10-16T21:43:14.297Z,15.46
2022-10-16T21:45:42.471Z,15.45
2022-10-16T21:48:10.470Z,15.36
2022-10-16T21:50:38.474Z,15.29
2022-10-16T21:53:07.834Z,15.23
2022-10-16T21:55:37.599Z,15.27
2022-10-16T21:58:08.816Z,15.23
2022-10-16T22:00:38.073Z,15.18
2022-10-16T22:03:06.149Z,15.07
2022-10-16T22:05:34.933Z,15.15
2022-10-16T22:08:03.096Z,15.16
2022-10-16T22:10:32.691Z,15.09
2022-10-16T22:13:01.423Z,15.06
2022-10-16T22:15:29.617Z,15.00
2022-10-16T22:17:57.631Z,15.06
2022-10-16T22:20:25.698Z,15.02
2022-10-16T22:22:53.717Z,15.06
2022-10-16T22:25:21.761Z,14.98
2022-10-16T22:27:51.192Z,14.94
2022-10-16T22:30:19.392Z,14.90
2022-10-16T22:32:47.385Z,14.92
2022-10-16T22:35:15.438Z,14.97
2022-10-16T22:37:43.505Z,15.02
2022-10-16T22:40:12.746Z,14.90
2022-10-16T22:42:40.807Z,14.86
2022-10-16T22:45:24.249Z,14.88
2022-10-16T22:47:52.634Z,14.85
2022-10-16T22:50:22.254Z,14.83
2022-10-16T22:52:50.482Z,14.89
2022-10-16T22:55:18.705Z,14.65
2022-10-16T22:57:46.745Z,14.65
2022-10-16T23:00:18.737Z,14.75
2022-10-16T23:02:47.075Z,14.79
2022-10-16T23:05:15.318Z,14.60
2022-10-16T23:07:44.750Z,14.57
2022-10-16T23:10:12.795Z,14.67
2022-10-16T23:12:40.785Z,14.58
2022-10-16T23:15:09.530Z,14.71
2022-10-16T23:17:38.953Z,14.61
2022-10-16T23:20:07.619Z,14.67
2022-10-16T23:22:35.665Z,14.76
2022-10-16T23:25:03.702Z,14.64
2022-10-16T23:27:31.749Z,14.57
2022-10-16T23:29:59.813Z,14.68
2022-10-16T23:32:28.149Z,14.46
2022-10-16T23:34:57.782Z,14.58
2022-10-16T23:37:25.840Z,14.51
2022-10-16T23:39:54.793Z,14.56
2022-10-16T23:42:22.814Z,14.50
2022-10-16T23:44:50.805Z,14.49
2022-10-16T23:47:18.835Z,14.65
2022-10-16T23:49:46.869Z,14.50
2022-10-16T23:52:16.242Z,14.46
2022-10-16T23:54:44.286Z,14.39
2022-10-16T23:57:12.529Z,14.41
2022-10-16T23:59:40.578Z,14.34
